sensor_id;sensor_type;location;lat;lon;timestamp;P1;durP1;ratioP1;P2;durP2;ratioP2
9256;SDS011;4665;51.368;6.782;2022-07-06T00:01:38;1.50;;;1.40;;
9256;SDS011;4665;51.368;6.782;2022-07-06T00:04:04;1.77;;;1.60;;
9256;SDS011;4665;51.368;6.782;2022-07-06T00:06:30;1.97;;;1.80;;
9256;SDS011;4665;51.368;6.782;2022-07-06T00:08:56;2.00;;;1.90;;
9256;SDS011;4665;51.368;6.782;2022-07-06T00:11:21;3.37;;;1.77;;
9256;SDS011;4665;51.368;6.782;2022-07-06T00:13:47;4.77;;;2.10;;
9256;SDS011;4665;51.368;6.782;2022-07-06T00:16:12;1.53;;;1.40;;
9256;SDS011;4665;51.368;6.782;2022-07-06T00:18:38;2.47;;;1.67;;
9256;SDS011;4665;51.368;6.782;2022-07-06T00:21:05;3.07;;;1.73;;
9256;SDS011;4665;51.368;6.782;2022-07-06T00:23:30;2.20;;;1.50;;
9256;SDS011;4665;51.368;6.782;2022-07-06T00:25:56;3.30;;;1.73;;
9256;SDS011;4665;51.368;6.782;2022-07-06T00:28:22;3.10;;;1.77;;
9256;SDS011;4665;51.368;6.782;2022-07-06T00:30:47;1.97;;;1.53;;
9256;SDS011;4665;51.368;6.782;2022-07-06T00:33:13;3.17;;;1.70;;
9256;SDS011;4665;51.368;6.782;2022-07-06T00:35:38;1.60;;;1.50;;
9256;SDS011;4665;51.368;6.782;2022-07-06T00:38:03;2.33;;;1.60;;
9256;SDS011;4665;51.368;6.782;2022-07-06T00:40:29;2.60;;;1.50;;
9256;SDS011;4665;51.368;6.782;2022-07-06T00:42:55;3.27;;;1.70;;
9256;SDS011;4665;51.368;6.782;2022-07-06T00:45:21;1.47;;;1.33;;
9256;SDS011;4665;51.368;6.782;2022-07-06T00:47:46;1.80;;;1.40;;
9256;SDS011;4665;51.368;6.782;2022-07-06T00:50:13;2.13;;;1.83;;
9256;SDS011;4665;51.368;6.782;2022-07-06T00:52:44;2.00;;;1.80;;
9256;SDS011;4665;51.368;6.782;2022-07-06T00:55:11;4.80;;;1.50;;
9256;SDS011;4665;51.368;6.782;2022-07-06T00:57:38;2.43;;;1.80;;
9256;SDS011;4665;51.368;6.782;2022-07-06T01:00:05;1.90;;;1.80;;
9256;SDS011;4665;51.368;6.782;2022-07-06T01:02:33;4.33;;;1.83;;
9256;SDS011;4665;51.368;6.782;2022-07-06T01:04:59;4.40;;;2.40;;
9256;SDS011;4665;51.368;6.782;2022-07-06T01:07:24;2.07;;;1.97;;
9256;SDS011;4665;51.368;6.782;2022-07-06T01:09:50;3.47;;;2.47;;
9256;SDS011;4665;51.368;6.782;2022-07-06T01:12:16;5.13;;;2.13;;
9256;SDS011;4665;51.368;6.782;2022-07-06T01:14:42;2.50;;;2.27;;
9256;SDS011;4665;51.368;6.782;2022-07-06T01:17:08;2.50;;;2.20;;
9256;SDS011;4665;51.368;6.782;2022-07-06T01:19:34;3.40;;;2.40;;
9256;SDS011;4665;51.368;6.782;2022-07-06T01:22:00;3.30;;;2.37;;
9256;SDS011;4665;51.368;6.782;2022-07-06T01:24:25;2.30;;;2.20;;
9256;SDS011;4665;51.368;6.782;2022-07-06T01:26:51;2.90;;;2.20;;
9256;SDS011;4665;51.368;6.782;2022-07-06T01:29:17;2.80;;;2.57;;
9256;SDS011;4665;51.368;6.782;2022-07-06T01:31:46;4.90;;;2.33;;
9256;SDS011;4665;51.368;6.782;2022-07-06T01:34:13;5.70;;;2.10;;
9256;SDS011;4665;51.368;6.782;2022-07-06T01:36:40;4.13;;;2.17;;
9256;SDS011;4665;51.368;6.782;2022-07-06T01:39:07;2.97;;;2.47;;
9256;SDS011;4665;51.368;6.782;2022-07-06T01:41:33;6.10;;;2.30;;
9256;SDS011;4665;51.368;6.782;2022-07-06T01:43:59;4.27;;;2.70;;
9256;SDS011;4665;51.368;6.782;2022-07-06T01:46:25;2.50;;;2.30;;
9256;SDS011;4665;51.368;6.782;2022-07-06T01:48:50;2.60;;;2.30;;
9256;SDS011;4665;51.368;6.782;2022-07-06T01:51:16;2.90;;;2.53;;
9256;SDS011;4665;51.368;6.782;2022-07-06T01:53:42;4.13;;;2.70;;
9256;SDS011;4665;51.368;6.782;2022-07-06T01:56:08;3.13;;;2.30;;
9256;SDS011;4665;51.368;6.782;2022-07-06T01:58:34;3.33;;;2.53;;
9256;SDS011;4665;51.368;6.782;2022-07-06T02:01:00;3.03;;;2.70;;
9256;SDS011;4665;51.368;6.782;2022-07-06T02:03:26;4.73;;;2.50;;
9256;SDS011;4665;51.368;6.782;2022-07-06T02:05:51;2.90;;;2.60;;
9256;SDS011;4665;51.368;6.782;2022-07-06T02:08:17;4.33;;;2.50;;
9256;SDS011;4665;51.368;6.782;2022-07-06T02:10:42;2.73;;;2.50;;
9256;SDS011;4665;51.368;6.782;2022-07-06T02:13:08;3.27;;;2.60;;
9256;SDS011;4665;51.368;6.782;2022-07-06T02:15:33;2.90;;;2.70;;
9256;SDS011;4665;51.368;6.782;2022-07-06T02:17:59;3.17;;;2.40;;
9256;SDS011;4665;51.368;6.782;2022-07-06T02:20:24;3.50;;;2.90;;
9256;SDS011;4665;51.368;6.782;2022-07-06T02:22:49;5.53;;;2.77;;
9256;SDS011;4665;51.368;6.782;2022-07-06T02:25:15;2.20;;;2.10;;
9256;SDS011;4665;51.368;6.782;2022-07-06T02:27:40;2.93;;;2.50;;
9256;SDS011;4665;51.368;6.782;2022-07-06T02:30:06;3.20;;;2.50;;
9256;SDS011;4665;51.368;6.782;2022-07-06T02:32:32;2.67;;;2.20;;
9256;SDS011;4665;51.368;6.782;2022-07-06T02:34:57;2.87;;;2.37;;
9256;SDS011;4665;51.368;6.782;2022-07-06T02:37:24;2.53;;;2.33;;
9256;SDS011;4665;51.368;6.782;2022-07-06T02:39:49;2.60;;;2.37;;
9256;SDS011;4665;51.368;6.782;2022-07-06T02:42:14;2.50;;;2.40;;
9256;SDS011;4665;51.368;6.782;2022-07-06T02:44:40;3.93;;;2.20;;
9256;SDS011;4665;51.368;6.782;2022-07-06T02:47:05;3.63;;;2.00;;
9256;SDS011;4665;51.368;6.782;2022-07-06T02:49:31;4.67;;;2.40;;
9256;SDS011;4665;51.368;6.782;2022-07-06T02:51:56;4.70;;;2.30;;
9256;SDS011;4665;51.368;6.782;2022-07-06T02:54:22;4.03;;;2.20;;
9256;SDS011;4665;51.368;6.782;2022-07-06T02:56:47;2.80;;;2.20;;
9256;SDS011;4665;51.368;6.782;2022-07-06T02:59:19;2.87;;;2.43;;
9256;SDS011;4665;51.368;6.782;2022-07-06T03:01:44;3.40;;;2.20;;
9256;SDS011;4665;51.368;6.782;2022-07-06T03:04:10;3.37;;;2.40;;
9256;SDS011;4665;51.368;6.782;2022-07-06T03:06:35;3.37;;;2.40;;
9256;SDS011;4665;51.368;6.782;2022-07-06T03:09:01;3.67;;;2.77;;
9256;SDS011;4665;51.368;6.782;2022-07-06T03:11:27;3.43;;;2.30;;
9256;SDS011;4665;51.368;6.782;2022-07-06T03:13:53;3.40;;;2.60;;
9256;SDS011;4665;51.368;6.782;2022-07-06T03:16:18;3.97;;;2.60;;
9256;SDS011;4665;51.368;6.782;2022-07-06T03:18:44;4.23;;;2.47;;
9256;SDS011;4665;51.368;6.782;2022-07-06T03:21:09;2.63;;;2.43;;
9256;SDS011;4665;51.368;6.782;2022-07-06T03:23:35;4.10;;;2.80;;
9256;SDS011;4665;51.368;6.782;2022-07-06T03:26:00;3.47;;;2.50;;
9256;SDS011;4665;51.368;6.782;2022-07-06T03:28:26;4.07;;;2.43;;
9256;SDS011;4665;51.368;6.782;2022-07-06T03:30:51;2.93;;;2.47;;
9256;SDS011;4665;51.368;6.782;2022-07-06T03:33:17;2.67;;;2.47;;
9256;SDS011;4665;51.368;6.782;2022-07-06T03:35:42;2.73;;;2.53;;
9256;SDS011;4665;51.368;6.782;2022-07-06T03:38:08;3.17;;;2.70;;
9256;SDS011;4665;51.368;6.782;2022-07-06T03:40:33;3.17;;;2.77;;
9256;SDS011;4665;51.368;6.782;2022-07-06T03:42:59;5.27;;;2.87;;
9256;SDS011;4665;51.368;6.782;2022-07-06T03:45:24;2.90;;;2.70;;
9256;SDS011;4665;51.368;6.782;2022-07-06T03:47:50;2.73;;;2.53;;
9256;SDS011;4665;51.368;6.782;2022-07-06T03:50:16;6.00;;;3.20;;
9256;SDS011;4665;51.368;6.782;2022-07-06T03:52:41;4.67;;;2.57;;
9256;SDS011;4665;51.368;6.782;2022-07-06T03:55:10;3.33;;;3.00;;
9256;SDS011;4665;51.368;6.782;2022-07-06T03:57:36;3.17;;;2.87;;
9256;SDS011;4665;51.368;6.782;2022-07-06T04:00:04;3.40;;;3.10;;
9256;SDS011;4665;51.368;6.782;2022-07-06T04:02:30;3.57;;;3.27;;
9256;SDS011;4665;51.368;6.782;2022-07-06T04:04:55;3.20;;;2.80;;
9256;SDS011;4665;51.368;6.782;2022-07-06T04:07:21;2.77;;;2.57;;
9256;SDS011;4665;51.368;6.782;2022-07-06T04:09:47;4.07;;;3.37;;
9256;SDS011;4665;51.368;6.782;2022-07-06T04:12:12;4.47;;;3.37;;
9256;SDS011;4665;51.368;6.782;2022-07-06T04:14:38;4.00;;;2.97;;
9256;SDS011;4665;51.368;6.782;2022-07-06T04:17:04;4.80;;;3.27;;
9256;SDS011;4665;51.368;6.782;2022-07-06T04:19:49;4.80;;;3.33;;
9256;SDS011;4665;51.368;6.782;2022-07-06T04:22:15;9.80;;;3.67;;
9256;SDS011;4665;51.368;6.782;2022-07-06T04:24:41;3.60;;;3.30;;
9256;SDS011;4665;51.368;6.782;2022-07-06T04:27:07;3.90;;;3.60;;
9256;SDS011;4665;51.368;6.782;2022-07-06T04:29:33;5.03;;;3.20;;
9256;SDS011;4665;51.368;6.782;2022-07-06T04:31:59;4.50;;;3.77;;
9256;SDS011;4665;51.368;6.782;2022-07-06T04:34:24;4.20;;;3.50;;
9256;SDS011;4665;51.368;6.782;2022-07-06T04:36:50;3.83;;;3.53;;
9256;SDS011;4665;51.368;6.782;2022-07-06T04:39:15;4.90;;;3.43;;
9256;SDS011;4665;51.368;6.782;2022-07-06T04:41:41;5.23;;;3.47;;
9256;SDS011;4665;51.368;6.782;2022-07-06T04:44:06;4.60;;;3.30;;
9256;SDS011;4665;51.368;6.782;2022-07-06T04:46:31;4.73;;;3.63;;
9256;SDS011;4665;51.368;6.782;2022-07-06T04:48:57;3.87;;;3.43;;
9256;SDS011;4665;51.368;6.782;2022-07-06T04:51:22;4.00;;;3.50;;
9256;SDS011;4665;51.368;6.782;2022-07-06T04:53:48;3.67;;;3.20;;
9256;SDS011;4665;51.368;6.782;2022-07-06T04:56:13;3.70;;;3.40;;
9256;SDS011;4665;51.368;6.782;2022-07-06T04:58:39;4.27;;;3.37;;
9256;SDS011;4665;51.368;6.782;2022-07-06T05:01:05;3.70;;;3.33;;
9256;SDS011;4665;51.368;6.782;2022-07-06T05:03:30;3.90;;;3.50;;
9256;SDS011;4665;51.368;6.782;2022-07-06T05:05:56;4.23;;;3.73;;
9256;SDS011;4665;51.368;6.782;2022-07-06T05:08:21;5.00;;;3.60;;
9256;SDS011;4665;51.368;6.782;2022-07-06T05:10:50;4.93;;;3.60;;
9256;SDS011;4665;51.368;6.782;2022-07-06T05:13:16;6.43;;;3.87;;
9256;SDS011;4665;51.368;6.782;2022-07-06T05:15:42;5.03;;;3.20;;
9256;SDS011;4665;51.368;6.782;2022-07-06T05:18:08;4.73;;;3.53;;
9256;SDS011;4665;51.368;6.782;2022-07-06T05:20:33;3.50;;;3.00;;
9256;SDS011;4665;51.368;6.782;2022-07-06T05:22:59;3.73;;;3.40;;
9256;SDS011;4665;51.368;6.782;2022-07-06T05:25:24;4.70;;;3.60;;
9256;SDS011;4665;51.368;6.782;2022-07-06T05:27:50;6.60;;;4.80;;
9256;SDS011;4665;51.368;6.782;2022-07-06T05:30:15;4.50;;;3.37;;
9256;SDS011;4665;51.368;6.782;2022-07-06T05:32:41;3.40;;;3.10;;
9256;SDS011;4665;51.368;6.782;2022-07-06T05:35:07;4.00;;;3.70;;
9256;SDS011;4665;51.368;6.782;2022-07-06T05:37:33;4.17;;;3.53;;
9256;SDS011;4665;51.368;6.782;2022-07-06T05:39:58;7.60;;;3.60;;
9256;SDS011;4665;51.368;6.782;2022-07-06T05:42:24;4.53;;;3.73;;
9256;SDS011;4665;51.368;6.782;2022-07-06T05:44:49;6.40;;;3.53;;
9256;SDS011;4665;51.368;6.782;2022-07-06T05:47:14;6.07;;;3.60;;
9256;SDS011;4665;51.368;6.782;2022-07-06T05:49:58;4.40;;;3.67;;
9256;SDS011;4665;51.368;6.782;2022-07-06T05:52:43;5.40;;;3.70;;
9256;SDS011;4665;51.368;6.782;2022-07-06T05:55:10;7.10;;;3.80;;
9256;SDS011;4665;51.368;6.782;2022-07-06T05:57:36;4.80;;;3.60;;
9256;SDS011;4665;51.368;6.782;2022-07-06T06:00:03;4.40;;;3.70;;
9256;SDS011;4665;51.368;6.782;2022-07-06T06:02:37;5.40;;;3.57;;
9256;SDS011;4665;51.368;6.782;2022-07-06T06:05:04;9.07;;;3.90;;
9256;SDS011;4665;51.368;6.782;2022-07-06T06:07:30;5.73;;;3.50;;
9256;SDS011;4665;51.368;6.782;2022-07-06T06:09:58;4.93;;;3.90;;
9256;SDS011;4665;51.368;6.782;2022-07-06T06:12:23;3.87;;;3.27;;
9256;SDS011;4665;51.368;6.782;2022-07-06T06:14:49;7.97;;;3.57;;
9256;SDS011;4665;51.368;6.782;2022-07-06T06:17:14;3.80;;;3.50;;
9256;SDS011;4665;51.368;6.782;2022-07-06T06:19:40;6.90;;;3.50;;
9256;SDS011;4665;51.368;6.782;2022-07-06T06:22:05;3.20;;;2.90;;
9256;SDS011;4665;51.368;6.782;2022-07-06T06:24:32;3.93;;;2.70;;
9256;SDS011;4665;51.368;6.782;2022-07-06T06:26:57;6.43;;;2.90;;
9256;SDS011;4665;51.368;6.782;2022-07-06T06:29:24;3.53;;;2.70;;
9256;SDS011;4665;51.368;6.782;2022-07-06T06:31:50;3.50;;;3.30;;
9256;SDS011;4665;51.368;6.782;2022-07-06T06:34:15;3.83;;;2.83;;
9256;SDS011;4665;51.368;6.782;2022-07-06T06:36:41;5.10;;;2.90;;
9256;SDS011;4665;51.368;6.782;2022-07-06T06:39:06;4.43;;;2.97;;
9256;SDS011;4665;51.368;6.782;2022-07-06T06:41:32;6.67;;;3.07;;
9256;SDS011;4665;51.368;6.782;2022-07-06T06:43:57;3.63;;;2.60;;
9256;SDS011;4665;51.368;6.782;2022-07-06T06:46:22;2.57;;;2.37;;
9256;SDS011;4665;51.368;6.782;2022-07-06T06:48:48;4.73;;;2.60;;
9256;SDS011;4665;51.368;6.782;2022-07-06T06:51:14;5.40;;;2.40;;
9256;SDS011;4665;51.368;6.782;2022-07-06T06:56:28;6.20;;;2.53;;
9256;SDS011;4665;51.368;6.782;2022-07-06T06:58:54;2.23;;;2.10;;
9256;SDS011;4665;51.368;6.782;2022-07-06T07:01:19;2.37;;;2.13;;
9256;SDS011;4665;51.368;6.782;2022-07-06T07:03:45;4.77;;;2.23;;
9256;SDS011;4665;51.368;6.782;2022-07-06T07:06:10;2.83;;;1.80;;
9256;SDS011;4665;51.368;6.782;2022-07-06T07:08:36;2.87;;;1.70;;
9256;SDS011;4665;51.368;6.782;2022-07-06T07:11:01;2.17;;;1.80;;
9256;SDS011;4665;51.368;6.782;2022-07-06T07:13:27;3.90;;;1.53;;
9256;SDS011;4665;51.368;6.782;2022-07-06T07:15:52;4.10;;;1.63;;
9256;SDS011;4665;51.368;6.782;2022-07-06T07:18:18;3.93;;;1.70;;
9256;SDS011;4665;51.368;6.782;2022-07-06T07:20:44;7.03;;;1.50;;
9256;SDS011;4665;51.368;6.782;2022-07-06T07:23:09;3.30;;;1.50;;
9256;SDS011;4665;51.368;6.782;2022-07-06T07:25:34;2.73;;;1.60;;
9256;SDS011;4665;51.368;6.782;2022-07-06T07:28:03;5.03;;;1.97;;
9256;SDS011;4665;51.368;6.782;2022-07-06T07:30:29;3.53;;;1.50;;
9256;SDS011;4665;51.368;6.782;2022-07-06T07:32:55;5.57;;;1.90;;
9256;SDS011;4665;51.368;6.782;2022-07-06T07:35:21;2.03;;;1.43;;
9256;SDS011;4665;51.368;6.782;2022-07-06T07:37:47;3.70;;;1.50;;
9256;SDS011;4665;51.368;6.782;2022-07-06T07:40:12;1.87;;;1.37;;
9256;SDS011;4665;51.368;6.782;2022-07-06T07:42:38;1.50;;;1.30;;
9256;SDS011;4665;51.368;6.782;2022-07-06T07:45:06;4.23;;;1.17;;
9256;SDS011;4665;51.368;6.782;2022-07-06T07:47:33;1.50;;;1.17;;
9256;SDS011;4665;51.368;6.782;2022-07-06T07:49:59;2.30;;;1.77;;
9256;SDS011;4665;51.368;6.782;2022-07-06T07:52:24;1.70;;;1.60;;
9256;SDS011;4665;51.368;6.782;2022-07-06T07:54:55;2.20;;;0.97;;
9256;SDS011;4665;51.368;6.782;2022-07-06T07:57:20;1.17;;;1.07;;
9256;SDS011;4665;51.368;6.782;2022-07-06T07:59:53;5.87;;;1.37;;
9256;SDS011;4665;51.368;6.782;2022-07-06T08:02:19;2.63;;;1.50;;
9256;SDS011;4665;51.368;6.782;2022-07-06T08:04:57;2.23;;;1.20;;
9256;SDS011;4665;51.368;6.782;2022-07-06T08:07:23;4.27;;;1.60;;
9256;SDS011;4665;51.368;6.782;2022-07-06T08:09:55;1.40;;;1.20;;
9256;SDS011;4665;51.368;6.782;2022-07-06T08:12:20;2.20;;;0.90;;
9256;SDS011;4665;51.368;6.782;2022-07-06T08:14:48;1.43;;;1.00;;
9256;SDS011;4665;51.368;6.782;2022-07-06T08:17:14;4.70;;;1.33;;
9256;SDS011;4665;51.368;6.782;2022-07-06T08:22:19;3.10;;;1.30;;
9256;SDS011;4665;51.368;6.782;2022-07-06T08:24:44;1.70;;;1.10;;
9256;SDS011;4665;51.368;6.782;2022-07-06T08:27:10;4.23;;;1.20;;
9256;SDS011;4665;51.368;6.782;2022-07-06T08:29:35;1.97;;;1.13;;
9256;SDS011;4665;51.368;6.782;2022-07-06T08:32:01;3.43;;;1.60;;
9256;SDS011;4665;51.368;6.782;2022-07-06T08:34:26;2.13;;;0.97;;
9256;SDS011;4665;51.368;6.782;2022-07-06T08:36:52;3.17;;;1.20;;
9256;SDS011;4665;51.368;6.782;2022-07-06T08:39:17;1.30;;;0.90;;
9256;SDS011;4665;51.368;6.782;2022-07-06T08:41:42;1.23;;;1.00;;
9256;SDS011;4665;51.368;6.782;2022-07-06T08:44:13;2.17;;;1.20;;
9256;SDS011;4665;51.368;6.782;2022-07-06T08:46:40;4.90;;;1.37;;
9256;SDS011;4665;51.368;6.782;2022-07-06T08:49:06;0.83;;;0.83;;
9256;SDS011;4665;51.368;6.782;2022-07-06T08:51:34;2.80;;;1.20;;
9256;SDS011;4665;51.368;6.782;2022-07-06T08:54:02;1.60;;;0.80;;
9256;SDS011;4665;51.368;6.782;2022-07-06T08:56:27;1.43;;;0.77;;
9256;SDS011;4665;51.368;6.782;2022-07-06T08:58:54;1.33;;;0.57;;
9256;SDS011;4665;51.368;6.782;2022-07-06T09:01:20;2.07;;;0.60;;
9256;SDS011;4665;51.368;6.782;2022-07-06T09:03:47;1.67;;;1.27;;
9256;SDS011;4665;51.368;6.782;2022-07-06T09:06:15;2.03;;;0.80;;
9256;SDS011;4665;51.368;6.782;2022-07-06T09:08:44;3.10;;;1.17;;
9256;SDS011;4665;51.368;6.782;2022-07-06T09:11:11;1.03;;;0.77;;
9256;SDS011;4665;51.368;6.782;2022-07-06T09:13:37;1.73;;;0.70;;
9256;SDS011;4665;51.368;6.782;2022-07-06T09:16:11;1.90;;;0.60;;
9256;SDS011;4665;51.368;6.782;2022-07-06T09:18:38;0.60;;;0.60;;
9256;SDS011;4665;51.368;6.782;2022-07-06T09:21:04;2.40;;;1.07;;
9256;SDS011;4665;51.368;6.782;2022-07-06T09:23:33;1.80;;;1.00;;
9256;SDS011;4665;51.368;6.782;2022-07-06T09:26:01;1.37;;;0.67;;
9256;SDS011;4665;51.368;6.782;2022-07-06T09:28:41;0.70;;;0.50;;
9256;SDS011;4665;51.368;6.782;2022-07-06T09:31:10;4.07;;;1.00;;
9256;SDS011;4665;51.368;6.782;2022-07-06T09:33:36;0.67;;;0.50;;
9256;SDS011;4665;51.368;6.782;2022-07-06T09:36:02;1.10;;;0.80;;
9256;SDS011;4665;51.368;6.782;2022-07-06T09:38:28;2.07;;;0.87;;
9256;SDS011;4665;51.368;6.782;2022-07-06T09:40:54;1.30;;;0.77;;
9256;SDS011;4665;51.368;6.782;2022-07-06T09:43:20;1.33;;;0.97;;
9256;SDS011;4665;51.368;6.782;2022-07-06T09:48:26;1.20;;;0.63;;
9256;SDS011;4665;51.368;6.782;2022-07-06T09:50:53;1.07;;;0.90;;
9256;SDS011;4665;51.368;6.782;2022-07-06T09:53:21;1.30;;;0.67;;
9256;SDS011;4665;51.368;6.782;2022-07-06T09:55:48;1.87;;;0.83;;
9256;SDS011;4665;51.368;6.782;2022-07-06T09:58:15;0.57;;;0.50;;
9256;SDS011;4665;51.368;6.782;2022-07-06T10:00:42;2.47;;;0.90;;
9256;SDS011;4665;51.368;6.782;2022-07-06T10:03:08;1.67;;;0.63;;
9256;SDS011;4665;51.368;6.782;2022-07-06T10:05:38;2.20;;;1.00;;
9256;SDS011;4665;51.368;6.782;2022-07-06T10:08:06;1.17;;;0.73;;
9256;SDS011;4665;51.368;6.782;2022-07-06T10:10:35;1.40;;;0.67;;
9256;SDS011;4665;51.368;6.782;2022-07-06T10:13:02;1.53;;;0.60;;
9256;SDS011;4665;51.368;6.782;2022-07-06T10:15:29;1.40;;;0.80;;
9256;SDS011;4665;51.368;6.782;2022-07-06T10:18:02;0.40;;;0.37;;
9256;SDS011;4665;51.368;6.782;2022-07-06T10:20:30;0.83;;;0.63;;
9256;SDS011;4665;51.368;6.782;2022-07-06T10:22:58;1.73;;;0.90;;
9256;SDS011;4665;51.368;6.782;2022-07-06T10:25:26;2.13;;;0.90;;
9256;SDS011;4665;51.368;6.782;2022-07-06T10:27:53;1.27;;;0.67;;
9256;SDS011;4665;51.368;6.782;2022-07-06T10:30:19;3.23;;;0.77;;
9256;SDS011;4665;51.368;6.782;2022-07-06T10:32:46;3.23;;;1.27;;
9256;SDS011;4665;51.368;6.782;2022-07-06T10:35:13;2.47;;;1.13;;
9256;SDS011;4665;51.368;6.782;2022-07-06T10:37:40;2.60;;;0.93;;
9256;SDS011;4665;51.368;6.782;2022-07-06T10:40:06;1.20;;;0.50;;
9256;SDS011;4665;51.368;6.782;2022-07-06T10:50:36;2.37;;;0.77;;
9256;SDS011;4665;51.368;6.782;2022-07-06T10:53:02;1.80;;;0.80;;
9256;SDS011;4665;51.368;6.782;2022-07-06T10:55:35;1.97;;;0.80;;
9256;SDS011;4665;51.368;6.782;2022-07-06T10:58:02;0.50;;;0.50;;
9256;SDS011;4665;51.368;6.782;2022-07-06T11:05:58;1.60;;;1.20;;
9256;SDS011;4665;51.368;6.782;2022-07-06T11:11:13;1.83;;;1.30;;
9256;SDS011;4665;51.368;6.782;2022-07-06T11:14:10;1.67;;;1.17;;
9256;SDS011;4665;51.368;6.782;2022-07-06T11:16:40;0.70;;;0.70;;
9256;SDS011;4665;51.368;6.782;2022-07-06T11:19:26;1.27;;;0.80;;
9256;SDS011;4665;51.368;6.782;2022-07-06T11:22:08;1.53;;;0.80;;
9256;SDS011;4665;51.368;6.782;2022-07-06T11:24:39;1.97;;;1.07;;
9256;SDS011;4665;51.368;6.782;2022-07-06T11:27:05;1.20;;;0.90;;
9256;SDS011;4665;51.368;6.782;2022-07-06T11:29:33;1.37;;;0.93;;
9256;SDS011;4665;51.368;6.782;2022-07-06T11:32:04;1.43;;;1.10;;
9256;SDS011;4665;51.368;6.782;2022-07-06T11:34:34;1.10;;;0.90;;
9256;SDS011;4665;51.368;6.782;2022-07-06T11:37:03;2.83;;;1.10;;
9256;SDS011;4665;51.368;6.782;2022-07-06T11:39:33;1.63;;;0.93;;
9256;SDS011;4665;51.368;6.782;2022-07-06T11:42:01;1.37;;;1.20;;
9256;SDS011;4665;51.368;6.782;2022-07-06T11:44:29;2.13;;;1.20;;
9256;SDS011;4665;51.368;6.782;2022-07-06T11:46:54;2.57;;;1.33;;
9256;SDS011;4665;51.368;6.782;2022-07-06T11:49:21;2.60;;;1.50;;
9256;SDS011;4665;51.368;6.782;2022-07-06T11:51:47;1.60;;;1.50;;
9256;SDS011;4665;51.368;6.782;2022-07-06T11:54:19;1.90;;;1.33;;
9256;SDS011;4665;51.368;6.782;2022-07-06T11:59:15;1.60;;;1.10;;
9256;SDS011;4665;51.368;6.782;2022-07-06T12:01:41;1.03;;;0.90;;
9256;SDS011;4665;51.368;6.782;2022-07-06T12:04:09;0.80;;;0.80;;
9256;SDS011;4665;51.368;6.782;2022-07-06T12:06:35;3.90;;;1.30;;
9256;SDS011;4665;51.368;6.782;2022-07-06T12:09:01;2.87;;;1.30;;
9256;SDS011;4665;51.368;6.782;2022-07-06T12:11:35;4.07;;;1.10;;
9256;SDS011;4665;51.368;6.782;2022-07-06T12:16:48;1.33;;;1.00;;
9256;SDS011;4665;51.368;6.782;2022-07-06T12:19:17;1.43;;;1.13;;
9256;SDS011;4665;51.368;6.782;2022-07-06T12:21:46;4.20;;;1.40;;
9256;SDS011;4665;51.368;6.782;2022-07-06T12:24:22;0.80;;;0.80;;
9256;SDS011;4665;51.368;6.782;2022-07-06T12:26:49;2.20;;;1.10;;
9256;SDS011;4665;51.368;6.782;2022-07-06T12:36:49;1.03;;;0.90;;
9256;SDS011;4665;51.368;6.782;2022-07-06T12:42:22;2.30;;;1.20;;
9256;SDS011;4665;51.368;6.782;2022-07-06T12:44:51;1.73;;;0.83;;
9256;SDS011;4665;51.368;6.782;2022-07-06T12:50:08;1.03;;;0.93;;
9256;SDS011;4665;51.368;6.782;2022-07-06T12:52:35;1.73;;;0.90;;
9256;SDS011;4665;51.368;6.782;2022-07-06T12:55:01;2.07;;;0.87;;
9256;SDS011;4665;51.368;6.782;2022-07-06T12:57:28;1.53;;;1.13;;
9256;SDS011;4665;51.368;6.782;2022-07-06T13:00:11;3.80;;;1.60;;
9256;SDS011;4665;51.368;6.782;2022-07-06T13:02:36;1.70;;;1.10;;
9256;SDS011;4665;51.368;6.782;2022-07-06T13:05:09;1.30;;;0.77;;
9256;SDS011;4665;51.368;6.782;2022-07-06T13:07:36;5.93;;;3.13;;
9256;SDS011;4665;51.368;6.782;2022-07-06T13:10:04;2.90;;;2.43;;
9256;SDS011;4665;51.368;6.782;2022-07-06T13:12:32;1.90;;;1.37;;
9256;SDS011;4665;51.368;6.782;2022-07-06T13:14:57;1.90;;;1.27;;
9256;SDS011;4665;51.368;6.782;2022-07-06T13:17:23;2.10;;;1.20;;
9256;SDS011;4665;51.368;6.782;2022-07-06T13:19:48;2.23;;;1.30;;
9256;SDS011;4665;51.368;6.782;2022-07-06T13:22:14;1.37;;;1.27;;
9256;SDS011;4665;51.368;6.782;2022-07-06T13:24:40;1.43;;;1.27;;
9256;SDS011;4665;51.368;6.782;2022-07-06T13:27:05;2.93;;;1.30;;
9256;SDS011;4665;51.368;6.782;2022-07-06T13:29:31;4.03;;;1.83;;
9256;SDS011;4665;51.368;6.782;2022-07-06T13:31:56;4.70;;;1.47;;
9256;SDS011;4665;51.368;6.782;2022-07-06T13:34:22;1.07;;;0.97;;
9256;SDS011;4665;51.368;6.782;2022-07-06T13:36:49;1.80;;;1.70;;
9256;SDS011;4665;51.368;6.782;2022-07-06T13:39:14;2.10;;;1.90;;
9256;SDS011;4665;51.368;6.782;2022-07-06T13:41:39;3.90;;;2.70;;
9256;SDS011;4665;51.368;6.782;2022-07-06T13:44:05;5.13;;;1.77;;
9256;SDS011;4665;51.368;6.782;2022-07-06T13:46:32;1.97;;;1.23;;
9256;SDS011;4665;51.368;6.782;2022-07-06T13:48:58;4.17;;;2.00;;
9256;SDS011;4665;51.368;6.782;2022-07-06T13:51:24;2.40;;;2.00;;
9256;SDS011;4665;51.368;6.782;2022-07-06T13:53:51;1.80;;;1.57;;
9256;SDS011;4665;51.368;6.782;2022-07-06T13:56:17;2.40;;;1.70;;
9256;SDS011;4665;51.368;6.782;2022-07-06T13:58:43;2.00;;;1.73;;
9256;SDS011;4665;51.368;6.782;2022-07-06T14:01:09;6.03;;;1.30;;
9256;SDS011;4665;51.368;6.782;2022-07-06T14:03:35;1.60;;;0.80;;
9256;SDS011;4665;51.368;6.782;2022-07-06T14:06:03;2.37;;;0.83;;
9256;SDS011;4665;51.368;6.782;2022-07-06T14:08:30;1.30;;;1.20;;
9256;SDS011;4665;51.368;6.782;2022-07-06T14:10:55;1.17;;;1.00;;
9256;SDS011;4665;51.368;6.782;2022-07-06T14:13:22;1.73;;;1.47;;
9256;SDS011;4665;51.368;6.782;2022-07-06T14:15:48;4.37;;;1.40;;
9256;SDS011;4665;51.368;6.782;2022-07-06T14:18:14;0.93;;;0.90;;
9256;SDS011;4665;51.368;6.782;2022-07-06T14:20:42;3.70;;;1.93;;
9256;SDS011;4665;51.368;6.782;2022-07-06T14:23:08;1.40;;;0.70;;
9256;SDS011;4665;51.368;6.782;2022-07-06T14:25:33;0.80;;;0.80;;
9256;SDS011;4665;51.368;6.782;2022-07-06T14:27:59;1.27;;;0.83;;
9256;SDS011;4665;51.368;6.782;2022-07-06T14:30:25;1.43;;;0.80;;
9256;SDS011;4665;51.368;6.782;2022-07-06T14:32:51;1.90;;;1.00;;
9256;SDS011;4665;51.368;6.782;2022-07-06T14:35:16;6.10;;;1.00;;
9256;SDS011;4665;51.368;6.782;2022-07-06T14:37:42;2.20;;;0.83;;
9256;SDS011;4665;51.368;6.782;2022-07-06T14:40:07;3.27;;;1.57;;
9256;SDS011;4665;51.368;6.782;2022-07-06T14:42:33;2.07;;;1.40;;
9256;SDS011;4665;51.368;6.782;2022-07-06T14:44:59;2.27;;;1.33;;
9256;SDS011;4665;51.368;6.782;2022-07-06T14:47:24;3.17;;;1.17;;
9256;SDS011;4665;51.368;6.782;2022-07-06T14:49:50;1.27;;;0.77;;
9256;SDS011;4665;51.368;6.782;2022-07-06T14:52:17;1.40;;;0.87;;
9256;SDS011;4665;51.368;6.782;2022-07-06T14:54:42;4.60;;;1.23;;
9256;SDS011;4665;51.368;6.782;2022-07-06T14:57:08;1.90;;;1.03;;
9256;SDS011;4665;51.368;6.782;2022-07-06T14:59:34;3.17;;;0.77;;
9256;SDS011;4665;51.368;6.782;2022-07-06T15:02:00;0.80;;;0.80;;
9256;SDS011;4665;51.368;6.782;2022-07-06T15:04:25;1.33;;;0.73;;
9256;SDS011;4665;51.368;6.782;2022-07-06T15:06:51;3.63;;;1.20;;
9256;SDS011;4665;51.368;6.782;2022-07-06T15:09:16;2.30;;;1.20;;
9256;SDS011;4665;51.368;6.782;2022-07-06T15:11:42;2.77;;;0.60;;
9256;SDS011;4665;51.368;6.782;2022-07-06T15:14:10;2.70;;;0.80;;
9256;SDS011;4665;51.368;6.782;2022-07-06T15:16:35;3.53;;;0.90;;
9256;SDS011;4665;51.368;6.782;2022-07-06T15:19:01;1.60;;;0.77;;
9256;SDS011;4665;51.368;6.782;2022-07-06T15:21:26;3.30;;;1.10;;
9256;SDS011;4665;51.368;6.782;2022-07-06T15:23:52;1.53;;;0.70;;
9256;SDS011;4665;51.368;6.782;2022-07-06T15:26:17;2.87;;;1.17;;
9256;SDS011;4665;51.368;6.782;2022-07-06T15:28:43;4.50;;;0.97;;
9256;SDS011;4665;51.368;6.782;2022-07-06T15:31:08;2.17;;;0.73;;
9256;SDS011;4665;51.368;6.782;2022-07-06T15:33:34;1.67;;;0.90;;
9256;SDS011;4665;51.368;6.782;2022-07-06T15:35:59;1.23;;;1.07;;
9256;SDS011;4665;51.368;6.782;2022-07-06T15:38:25;1.93;;;1.73;;
9256;SDS011;4665;51.368;6.782;2022-07-06T15:40:50;1.53;;;1.40;;
9256;SDS011;4665;51.368;6.782;2022-07-06T15:43:24;2.90;;;1.47;;
9256;SDS011;4665;51.368;6.782;2022-07-06T15:45:57;1.37;;;0.87;;
9256;SDS011;4665;51.368;6.782;2022-07-06T15:48:26;1.37;;;1.10;;
9256;SDS011;4665;51.368;6.782;2022-07-06T15:50:53;2.57;;;1.23;;
9256;SDS011;4665;51.368;6.782;2022-07-06T15:53:20;1.47;;;0.93;;
9256;SDS011;4665;51.368;6.782;2022-07-06T15:55:45;1.97;;;1.00;;